Time;durP1;ratioP1;P1;durP2;ratioP2;P2;SDS_P1;SDS_P2;PMS_P1;PMS_P2;Temp;Humidity;BMP_temperature;BMP_pressure;BME280_temperature;BME280_humidity;BME280_pressure;Samples;Min_cycle;Max_cycle;Signal;HPM_P1;HPM_P2
2022/08/02 00:00:11;;;;;;;1.30;1.20;;;24.10;99.90;;;;;;4230323;28;20217;-82
2022/08/02 00:02:13;;;;;;;1.83;1.27;;;24.10;99.90;;;;;;4229943;28;20267;-81
2022/08/02 00:04:15;;;;;;;2.13;1.30;;;24.10;99.90;;;;;;4230650;28;20217;-81
2022/08/02 00:06:17;;;;;;;1.80;1.10;;;24.10;99.90;;;;;;4230480;28;20661;-82
2022/08/02 00:08:20;;;;;;;1.40;1.30;;;24.10;99.90;;;;;;4230235;28;20734;-82
2022/08/02 00:10:22;;;;;;;1.67;0.90;;;24.10;99.90;;;;;;4230068;28;20213;-82
2022/08/02 00:12:26;;;;;;;2.35;1.30;;;24.10;99.90;;;;;;4230326;28;20222;-82
2022/08/02 00:14:28;;;;;;;1.55;1.45;;;24.10;99.90;;;;;;4230118;28;20213;-82
2022/08/02 00:16:31;;;;;;;0.80;0.80;;;24.10;99.90;;;;;;4230263;28;20221;-82
2022/08/02 00:18:33;;;;;;;2.08;1.20;;;24.10;99.90;;;;;;4230142;28;20210;-82
2022/08/02 00:20:35;;;;;;;1.33;1.02;;;24.10;99.90;;;;;;4230421;28;20209;-82
2022/08/02 00:22:38;;;;;;;1.58;1.20;;;24.10;99.90;;;;;;4229771;28;20263;-81
2022/08/02 00:24:40;;;;;;;1.88;1.20;;;24.10;99.90;;;;;;4230151;28;20218;-82
2022/08/02 00:26:42;;;;;;;1.30;1.17;;;24.00;99.90;;;;;;4230279;28;20556;-81
2022/08/02 00:28:46;;;;;;;2.28;1.08;;;24.10;99.90;;;;;;4229969;28;20700;-81
2022/08/02 00:30:49;;;;;;;2.00;1.40;;;24.10;99.90;;;;;;4230300;28;20214;-82
2022/08/02 00:32:51;;;;;;;1.88;1.30;;;24.10;99.90;;;;;;4229714;28;20661;-82
2022/08/02 00:34:53;;;;;;;1.92;1.17;;;24.00;99.90;;;;;;4229719;28;20263;-82
2022/08/02 00:36:56;;;;;;;2.15;1.40;;;24.00;99.90;;;;;;4229816;28;20213;-82
2022/08/02 00:38:58;;;;;;;1.45;1.10;;;24.00;99.90;;;;;;4229448;28;20221;-82
2022/08/02 00:41:00;;;;;;;1.83;1.30;;;24.00;99.90;;;;;;4230334;28;20753;-82
2022/08/02 00:43:05;;;;;;;2.15;1.33;;;24.00;99.90;;;;;;4229906;28;20707;-81
2022/08/02 00:45:10;;;;;;;1.75;1.30;;;24.00;99.90;;;;;;4229966;28;20217;-82
2022/08/02 00:47:12;;;;;;;1.63;1.02;;;24.00;99.90;;;;;;4229508;28;20615;-82
2022/08/02 00:49:15;;;;;;;1.90;1.23;;;24.00;99.90;;;;;;4229884;28;20662;-82
2022/08/02 00:51:17;;;;;;;1.75;1.30;;;24.00;99.90;;;;;;4229809;28;20210;-82
2022/08/02 00:53:20;;;;;;;2.22;1.05;;;24.00;99.90;;;;;;4229548;28;20233;-82
2022/08/02 00:55:22;;;;;;;2.38;1.15;;;24.00;99.90;;;;;;4229939;28;20217;-81
2022/08/02 00:57:24;;;;;;;1.70;1.20;;;24.00;99.90;;;;;;4230001;28;20549;-82
2022/08/02 00:59:27;;;;;;;2.08;1.20;;;24.00;99.90;;;;;;4229934;28;20218;-82
2022/08/02 01:01:38;;;;;;;1.67;1.40;;;24.00;99.90;;;;;;4229707;28;20267;-81
2022/08/02 01:03:41;;;;;;;2.30;1.30;;;24.00;99.90;;;;;;4229901;28;20221;-82
2022/08/02 01:05:44;;;;;;;1.52;1.13;;;24.00;99.90;;;;;;4229717;28;20614;-82
2022/08/02 01:07:46;;;;;;;2.05;1.40;;;24.00;99.90;;;;;;4229557;28;20657;-82
2022/08/02 01:09:49;;;;;;;2.25;1.40;;;23.90;99.90;;;;;;4229761;28;20561;-82
2022/08/02 01:11:51;;;;;;;1.67;1.30;;;24.00;99.90;;;;;;4229803;28;20213;-81
2022/08/02 01:13:55;;;;;;;3.20;1.50;;;24.00;99.90;;;;;;4229491;28;20233;-81
2022/08/02 01:16:04;;;;;;;1.75;1.40;;;24.00;99.90;;;;;;4230058;28;20325;-82
2022/08/02 01:18:13;;;;;;;2.05;1.30;;;24.00;99.90;;;;;;4229845;28;20213;-82
2022/08/02 01:20:31;;;;;;;1.52;1.20;;;24.00;99.90;;;;;;4229733;28;20221;-82
2022/08/02 01:22:55;;;;;;;2.72;1.50;;;24.00;99.90;;;;;;4229631;28;20243;-82
2022/08/02 01:25:18;;;;;;;2.42;1.50;;;23.90;99.90;;;;;;4216402;28;20263;-82
2022/08/02 01:27:32;;;;;;;2.55;1.23;;;24.00;99.90;;;;;;4229660;28;20213;-82
2022/08/02 01:29:41;;;;;;;2.47;1.20;;;23.90;99.90;;;;;;4229656;28;20726;-82
2022/08/02 01:31:50;;;;;;;1.90;1.40;;;23.90;99.90;;;;;;4229591;28;20263;-82
2022/08/02 01:34:02;;;;;;;2.35;1.38;;;23.90;99.90;;;;;;4229293;28;20241;-82
2022/08/02 01:36:07;;;;;;;2.58;1.40;;;23.90;99.90;;;;;;4229393;28;20214;-82
2022/08/02 01:38:14;;;;;;;2.60;1.23;;;23.90;99.90;;;;;;4229474;28;20213;-82
2022/08/02 01:40:21;;;;;;;2.67;1.40;;;23.90;99.90;;;;;;4229449;28;20703;-82
2022/08/02 01:42:27;;;;;;;2.45;1.60;;;23.90;99.90;;;;;;4229333;28;20559;-82
2022/08/02 01:44:33;;;;;;;3.95;1.50;;;23.90;99.90;;;;;;4229021;28;20233;-82
2022/08/02 01:46:40;;;;;;;2.13;1.38;;;23.90;99.90;;;;;;4229214;28;20214;-82
2022/08/02 01:48:45;;;;;;;2.03;1.38;;;23.90;99.90;;;;;;4229137;28;20224;-81
2022/08/02 01:50:49;;;;;;;3.08;1.52;;;23.90;99.90;;;;;;4229740;28;20213;-82
2022/08/02 01:52:55;;;;;;;2.13;1.77;;;23.90;99.90;;;;;;4232629;28;20271;-82
2022/08/02 01:55:01;;;;;;;2.28;1.48;;;24.00;99.90;;;;;;4231874;28;20287;-82
2022/08/02 01:57:07;;;;;;;2.17;1.45;;;23.90;99.90;;;;;;4232274;28;20214;-82
2022/08/02 01:59:12;;;;;;;2.08;1.58;;;23.90;99.90;;;;;;4232190;28;20615;-82
2022/08/02 02:01:17;;;;;;;3.60;1.60;;;23.90;99.90;;;;;;4232254;28;20657;-81
2022/08/02 02:03:23;;;;;;;2.03;1.42;;;23.90;99.90;;;;;;4232245;28;20213;-82
2022/08/02 02:05:28;;;;;;;1.80;1.50;;;23.90;99.90;;;;;;4232005;28;20214;-82
2022/08/02 02:07:33;;;;;;;3.20;1.80;;;23.90;99.90;;;;;;4231675;28;20263;-82
2022/08/02 02:09:38;;;;;;;3.28;1.60;;;23.90;99.90;;;;;;4232266;28;20221;-81
2022/08/02 02:11:44;;;;;;;1.38;1.27;;;23.90;99.90;;;;;;4231795;28;20743;-82
2022/08/02 02:13:48;;;;;;;1.80;1.40;;;23.90;99.90;;;;;;4231759;28;20654;-81
2022/08/02 02:15:52;;;;;;;1.33;1.20;;;23.90;99.90;;;;;;4232309;28;20279;-82
2022/08/02 02:17:57;;;;;;;1.50;1.25;;;23.90;99.90;;;;;;4232240;28;20258;-82
2022/08/02 02:20:02;;;;;;;2.00;1.52;;;23.90;99.90;;;;;;4232029;28;20210;-81
2022/08/02 02:22:05;;;;;;;1.90;1.40;;;23.90;99.90;;;;;;4232018;28;20218;-81
2022/08/02 02:24:07;;;;;;;2.05;1.45;;;23.90;99.90;;;;;;4231824;28;20739;-81
2022/08/02 02:26:13;;;;;;;1.80;1.42;;;23.90;99.90;;;;;;4231586;28;20620;-81
2022/08/02 02:28:22;;;;;;;1.88;1.40;;;23.90;99.90;;;;;;4231775;28;20218;-81
2022/08/02 02:30:28;;;;;;;2.58;1.40;;;23.90;99.90;;;;;;4231303;28;20275;-82
2022/08/02 02:32:31;;;;;;;2.53;1.77;;;23.90;99.90;;;;;;4231827;28;20661;-82
2022/08/02 02:34:37;;;;;;;1.88;1.60;;;23.90;99.90;;;;;;4231430;28;20516;-82
2022/08/02 02:36:47;;;;;;;3.53;1.60;;;23.90;99.90;;;;;;4231866;28;20214;-82
2022/08/02 02:38:51;;;;;;;2.08;1.30;;;23.90;99.90;;;;;;4231384;28;20286;-82
2022/08/02 02:40:56;;;;;;;1.60;1.40;;;23.90;99.90;;;;;;4231769;28;20275;-82
2022/08/02 02:43:00;;;;;;;2.33;1.83;;;23.90;99.90;;;;;;4231233;28;20218;-81
2022/08/02 02:45:04;;;;;;;3.38;1.52;;;23.90;99.90;;;;;;4231543;28;20616;-81
2022/08/02 02:47:08;;;;;;;2.33;1.42;;;23.90;99.90;;;;;;4231765;28;20281;-82
2022/08/02 02:49:13;;;;;;;2.65;1.40;;;23.90;99.90;;;;;;4231561;28;20263;-82
2022/08/02 02:51:16;;;;;;;2.47;1.40;;;23.90;99.90;;;;;;4231628;28;20209;-82
2022/08/02 02:53:20;;;;;;;2.53;1.50;;;23.90;99.90;;;;;;4231519;28;20225;-82
2022/08/02 02:55:24;;;;;;;1.60;1.30;;;23.90;99.90;;;;;;4231410;28;20271;-82
2022/08/02 02:57:26;;;;;;;2.15;1.33;;;23.90;99.90;;;;;;4231833;28;20206;-82
2022/08/02 02:59:30;;;;;;;1.73;1.55;;;23.80;99.90;;;;;;4231192;28;20734;-81
2022/08/02 03:01:32;;;;;;;1.58;1.48;;;23.90;99.90;;;;;;4231066;28;20217;-81
2022/08/02 03:03:37;;;;;;;1.92;1.42;;;23.90;99.90;;;;;;4230865;28;20278;-82
2022/08/02 03:05:39;;;;;;;3.30;1.60;;;23.80;99.90;;;;;;4231041;28;20747;-81
2022/08/02 03:07:42;;;;;;;3.90;1.77;;;23.90;99.90;;;;;;4230954;28;20255;-82
2022/08/02 03:09:45;;;;;;;2.42;1.48;;;23.90;99.90;;;;;;4231213;28;20217;-81
2022/08/02 03:11:48;;;;;;;2.90;1.73;;;23.90;99.90;;;;;;4231113;28;20221;-82
2022/08/02 03:13:52;;;;;;;2.13;1.48;;;23.80;99.90;;;;;;4231443;28;20247;-82
2022/08/02 03:15:54;;;;;;;2.00;1.60;;;23.80;99.90;;;;;;4230961;28;20281;-82
2022/08/02 03:17:57;;;;;;;2.45;1.50;;;23.80;99.90;;;;;;4231026;28;20213;-81
2022/08/02 03:19:59;;;;;;;2.03;1.30;;;23.80;99.90;;;;;;4231009;28;20213;-82
2022/08/02 03:22:01;;;;;;;3.15;1.63;;;23.80;99.90;;;;;;4231270;28;20670;-81
2022/08/02 03:24:05;;;;;;;1.98;1.50;;;23.80;99.90;;;;;;4231139;28;20214;-82
2022/08/02 03:26:09;;;;;;;2.47;1.60;;;23.80;99.90;;;;;;4230764;28;20630;-82
2022/08/02 03:28:11;;;;;;;2.05;1.60;;;23.80;99.90;;;;;;4230655;28;20243;-82
2022/08/02 03:30:14;;;;;;;1.90;1.45;;;23.80;99.90;;;;;;4230477;28;20217;-77
2022/08/02 03:32:17;;;;;;;1.65;1.55;;;23.80;99.90;;;;;;4230313;28;20270;-77
2022/08/02 03:34:19;;;;;;;1.80;1.55;;;23.80;99.90;;;;;;4230656;28;20234;-77
2022/08/02 03:36:24;;;;;;;2.08;1.70;;;23.80;99.90;;;;;;4230943;28;20627;-77
2022/08/02 03:38:27;;;;;;;2.40;1.65;;;23.80;99.90;;;;;;4230757;28;20221;-77
2022/08/02 03:40:31;;;;;;;3.08;1.75;;;23.80;99.90;;;;;;4230809;28;20206;-77
2022/08/02 03:42:34;;;;;;;1.98;1.45;;;23.80;99.90;;;;;;4230718;28;20209;-77
2022/08/02 03:44:38;;;;;;;1.73;1.50;;;23.80;99.90;;;;;;4230102;28;20279;-77
2022/08/02 03:46:42;;;;;;;2.22;1.70;;;23.80;99.90;;;;;;4230436;28;20213;-77
2022/08/02 03:48:46;;;;;;;3.28;1.85;;;23.80;99.90;;;;;;4230045;28;20621;-77
2022/08/02 03:50:48;;;;;;;2.42;1.70;;;23.80;99.90;;;;;;4230110;28;20696;-77
2022/08/02 03:52:51;;;;;;;1.95;1.70;;;23.80;99.90;;;;;;4230174;28;20218;-77
2022/08/02 03:54:54;;;;;;;1.80;1.40;;;23.80;99.90;;;;;;4230156;28;20666;-77
2022/08/02 03:56:56;;;;;;;2.47;1.52;;;23.80;99.90;;;;;;4230375;28;20255;-77
2022/08/02 03:59:10;;;;;;;2.00;1.70;;;23.80;99.90;;;;;;4230099;28;20619;-77
2022/08/02 04:01:13;;;;;;;1.50;1.40;;;23.80;99.90;;;;;;4230362;28;20225;-77
2022/08/02 04:03:15;;;;;;;2.30;1.80;;;23.80;99.90;;;;;;4230678;28;20271;-77
2022/08/02 04:05:18;;;;;;;1.52;1.42;;;23.80;99.90;;;;;;4230150;28;20206;-77
2022/08/02 04:07:20;;;;;;;2.88;1.58;;;23.70;99.90;;;;;;4229997;28;20213;-77
2022/08/02 04:09:22;;;;;;;2.00;1.23;;;23.70;99.90;;;;;;4230204;28;20217;-81
2022/08/02 04:11:30;;;;;;;2.88;1.75;;;23.80;99.90;;;;;;4230185;28;20217;-82
2022/08/02 04:13:37;;;;;;;1.90;1.70;;;23.80;99.90;;;;;;4229566;28;20662;-81
2022/08/02 04:15:41;;;;;;;2.08;1.60;;;23.70;99.90;;;;;;4229855;28;20240;-81
2022/08/02 04:17:50;;;;;;;2.28;1.70;;;23.70;99.90;;;;;;4230005;28;20217;-81
2022/08/02 04:19:58;;;;;;;2.10;1.67;;;23.70;99.90;;;;;;4230065;28;20212;-81
2022/08/02 04:22:04;;;;;;;1.88;1.67;;;23.70;99.90;;;;;;4230165;28;20209;-81
2022/08/02 04:24:09;;;;;;;2.20;1.60;;;23.70;99.90;;;;;;4229987;28;20213;-82
2022/08/02 04:26:12;;;;;;;3.17;1.73;;;23.70;99.90;;;;;;4229933;28;20205;-82
2022/08/02 04:28:17;;;;;;;2.17;1.63;;;23.70;99.90;;;;;;4229560;28;20213;-82
2022/08/02 04:30:20;;;;;;;2.38;1.70;;;23.70;99.90;;;;;;4230155;28;20214;-81
2022/08/02 04:32:24;;;;;;;2.20;1.60;;;23.70;99.90;;;;;;4230086;28;20330;-81
2022/08/02 04:34:27;;;;;;;1.73;1.50;;;23.70;99.90;;;;;;4230223;28;20218;-82
2022/08/02 04:36:30;;;;;;;2.45;2.08;;;23.70;99.90;;;;;;4230043;28;20314;-81
2022/08/02 04:38:32;;;;;;;1.50;1.40;;;23.70;99.90;;;;;;4230517;28;20545;-81
2022/08/02 04:40:35;;;;;;;2.58;2.15;;;23.70;99.90;;;;;;4230005;28;20222;-81
2022/08/02 04:42:38;;;;;;;1.70;1.60;;;23.70;99.90;;;;;;4229840;28;20337;-81
2022/08/02 04:44:40;;;;;;;3.38;2.13;;;23.70;99.90;;;;;;4229646;28;20238;-82
2022/08/02 04:46:44;;;;;;;2.25;1.67;;;23.70;99.90;;;;;;4230047;28;20234;-81
2022/08/02 04:48:47;;;;;;;1.90;1.52;;;23.70;99.90;;;;;;4230162;28;20682;-82
2022/08/02 04:50:51;;;;;;;1.95;1.63;;;23.70;99.90;;;;;;4230084;28;20217;-81
2022/08/02 04:52:53;;;;;;;4.20;1.80;;;23.70;99.90;;;;;;4229983;28;20555;-82
2022/08/02 04:54:55;;;;;;;3.17;1.90;;;23.70;99.90;;;;;;4229683;28;20277;-81
2022/08/02 04:56:58;;;;;;;2.33;1.80;;;23.70;99.90;;;;;;4229659;28;20267;-81
2022/08/02 04:59:00;;;;;;;1.98;1.40;;;23.70;99.90;;;;;;4229774;28;20214;-81
2022/08/02 05:01:02;;;;;;;1.90;1.63;;;23.70;99.90;;;;;;4229751;28;20630;-81
2022/08/02 05:03:05;;;;;;;2.38;1.77;;;23.70;99.90;;;;;;4229816;28;20266;-82
2022/08/02 05:05:09;;;;;;;2.92;1.73;;;23.70;99.90;;;;;;4229675;28;20710;-82
2022/08/02 05:07:11;;;;;;;1.52;1.40;;;23.70;99.90;;;;;;4229470;28;20259;-81
2022/08/02 05:09:14;;;;;;;2.90;1.70;;;23.70;99.90;;;;;;4229729;28;20221;-82
2022/08/02 05:11:16;;;;;;;3.08;1.52;;;23.70;99.90;;;;;;4229658;28;20214;-81
2022/08/02 05:13:19;;;;;;;2.60;2.00;;;23.70;99.90;;;;;;4230004;28;20213;-81
2022/08/02 05:15:21;;;;;;;2.65;2.00;;;23.70;99.90;;;;;;4230312;28;20279;-82
2022/08/02 05:17:23;;;;;;;1.92;1.73;;;23.70;99.90;;;;;;4229322;28;20739;-81
2022/08/02 05:19:26;;;;;;;1.98;1.65;;;23.70;99.90;;;;;;4229736;28;20618;-81
2022/08/02 05:21:30;;;;;;;2.88;1.77;;;23.70;99.90;;;;;;4229281;28;20214;-81
2022/08/02 05:23:32;;;;;;;5.15;2.00;;;23.70;99.90;;;;;;4229589;28;20217;-81
2022/08/02 05:25:34;;;;;;;2.78;2.10;;;23.70;99.90;;;;;;4229612;28;20218;-82
2022/08/02 05:27:37;;;;;;;1.85;1.75;;;23.70;99.90;;;;;;4232763;28;20259;-82
2022/08/02 05:29:39;;;;;;;2.58;1.70;;;23.70;99.90;;;;;;4232550;28;20209;-82
2022/08/02 05:31:41;;;;;;;2.20;1.80;;;23.70;99.90;;;;;;4232815;28;20618;-82
2022/08/02 05:33:43;;;;;;;2.08;1.88;;;23.70;99.90;;;;;;4232791;28;20619;-81
2022/08/02 05:35:46;;;;;;;2.05;1.73;;;23.70;99.90;;;;;;4232686;28;20275;-82
2022/08/02 05:37:51;;;;;;;2.53;1.67;;;23.70;99.90;;;;;;4233155;28;20225;-82
2022/08/02 05:39:53;;;;;;;2.08;1.88;;;23.70;99.90;;;;;;4232736;28;20283;-82
2022/08/02 05:41:55;;;;;;;2.20;1.75;;;23.60;99.90;;;;;;4232405;28;20271;-82
2022/08/02 05:43:58;;;;;;;2.10;1.90;;;23.70;99.90;;;;;;4232226;28;20282;-82
2022/08/02 05:46:00;;;;;;;2.00;1.80;;;23.60;99.90;;;;;;4232260;28;20270;-82
2022/08/02 05:48:03;;;;;;;2.53;2.00;;;23.70;99.90;;;;;;4232707;28;20348;-82
2022/08/02 05:50:07;;;;;;;3.83;2.00;;;23.60;99.90;;;;;;4232258;28;20222;-81
2022/08/02 05:52:14;;;;;;;3.13;1.73;;;23.60;99.90;;;;;;4232268;28;20603;-82
2022/08/02 05:54:23;;;;;;;3.10;1.90;;;23.70;99.90;;;;;;4232317;28;20216;-81
2022/08/02 05:56:32;;;;;;;2.28;1.98;;;23.60;99.90;;;;;;4232090;28;20262;-82
2022/08/02 05:58:44;;;;;;;2.63;1.90;;;23.60;99.90;;;;;;4232058;28;20262;-82
2022/08/02 06:00:49;;;;;;;2.88;2.22;;;23.60;99.90;;;;;;4232620;28;20217;-82
2022/08/02 06:03:04;;;;;;;2.67;1.98;;;23.60;99.90;;;;;;4231740;28;20213;-82
2022/08/02 06:05:11;;;;;;;3.13;2.10;;;23.60;99.90;;;;;;4232469;28;20287;-82
2022/08/02 06:07:14;;;;;;;2.75;2.00;;;23.60;99.90;;;;;;4231963;28;20205;-82
2022/08/02 06:09:19;;;;;;;3.63;2.28;;;23.60;99.90;;;;;;4232546;28;20217;-82
2022/08/02 06:11:22;;;;;;;3.90;1.77;;;23.60;99.90;;;;;;4232383;28;20213;-82
2022/08/02 06:13:25;;;;;;;3.60;2.05;;;23.60;99.90;;;;;;4232119;28;20665;-81
2022/08/02 06:15:28;;;;;;;2.22;1.90;;;23.60;99.90;;;;;;4231573;28;20616;-82
2022/08/02 06:17:32;;;;;;;2.55;2.13;;;23.60;99.90;;;;;;4232013;28;20657;-82
2022/08/02 06:19:37;;;;;;;2.65;1.85;;;23.60;99.90;;;;;;4231903;28;20606;-82
2022/08/02 06:21:41;;;;;;;2.45;2.25;;;23.60;99.90;;;;;;4231897;28;20221;-82
2022/08/02 06:23:44;;;;;;;2.38;1.80;;;23.60;99.90;;;;;;4232014;28;20218;-82
2022/08/02 06:25:50;;;;;;;2.60;2.22;;;23.60;99.90;;;;;;4231808;28;20254;-82
2022/08/02 06:27:53;;;;;;;3.13;2.13;;;23.60;99.90;;;;;;4231808;28;20562;-82
2022/08/02 06:29:56;;;;;;;3.33;2.05;;;23.60;99.90;;;;;;4231823;28;20225;-82
2022/08/02 06:31:59;;;;;;;3.90;2.10;;;23.60;99.90;;;;;;4231782;28;20556;-82
2022/08/02 06:34:01;;;;;;;3.55;2.00;;;23.60;99.90;;;;;;4231805;28;20217;-82
2022/08/02 06:36:08;;;;;;;2.65;2.10;;;23.60;99.90;;;;;;4231555;28;20287;-82
2022/08/02 06:38:17;;;;;;;4.40;2.45;;;23.60;99.90;;;;;;4231145;28;20213;-82
2022/08/02 06:40:26;;;;;;;2.72;2.20;;;23.60;99.90;;;;;;4231460;28;20205;-82
2022/08/02 06:42:40;;;;;;;4.57;2.22;;;23.60;99.90;;;;;;4231563;28;20217;-83
2022/08/02 06:44:42;;;;;;;2.70;2.17;;;23.60;99.90;;;;;;4231570;28;20282;-82
2022/08/02 06:46:46;;;;;;;2.05;1.83;;;23.60;99.90;;;;;;4231332;28;20214;-82
2022/08/02 06:48:49;;;;;;;3.17;2.00;;;23.60;99.90;;;;;;4231237;28;20738;-82
2022/08/02 06:50:51;;;;;;;2.25;1.98;;;23.70;99.90;;;;;;4231605;28;20315;-82
2022/08/02 06:52:53;;;;;;;6.97;2.67;;;23.60;99.90;;;;;;4231457;28;20259;-81
2022/08/02 06:54:56;;;;;;;3.17;1.92;;;23.60;99.90;;;;;;4231495;28;20213;-81
2022/08/02 06:56:58;;;;;;;6.53;2.30;;;23.70;99.90;;;;;;4230858;28;20635;-81
2022/08/02 06:59:02;;;;;;;3.78;2.28;;;23.60;99.90;;;;;;4231861;28;20266;-81
2022/08/02 07:01:06;;;;;;;3.65;2.20;;;23.60;99.90;;;;;;4231493;28;20217;-82
2022/08/02 07:03:08;;;;;;;3.75;2.20;;;23.60;99.90;;;;;;4231737;28;20263;-81
2022/08/02 07:05:10;;;;;;;4.22;2.42;;;23.60;99.90;;;;;;4231161;28;20221;-82
2022/08/02 07:07:13;;;;;;;5.13;2.45;;;23.70;99.90;;;;;;4231309;28;20205;-82
2022/08/02 07:09:15;;;;;;;2.92;2.13;;;23.60;99.90;;;;;;4231305;28;20217;-81
2022/08/02 07:11:18;;;;;;;3.67;2.42;;;23.60;99.90;;;;;;4231110;28;20547;-82
2022/08/02 07:13:20;;;;;;;5.18;2.10;;;23.60;99.90;;;;;;4231488;28;20707;-82
2022/08/02 07:15:24;;;;;;;2.65;2.00;;;23.60;99.90;;;;;;4231216;28;20210;-82
2022/08/02 07:17:26;;;;;;;4.97;2.10;;;23.60;99.90;;;;;;4230811;28;20246;-82
2022/08/02 07:19:28;;;;;;;3.00;2.42;;;23.60;99.90;;;;;;4231017;28;20266;-82
2022/08/02 07:21:31;;;;;;;2.40;2.20;;;23.60;99.90;;;;;;4230935;28;20213;-81
2022/08/02 07:23:33;;;;;;;5.45;2.10;;;23.60;99.90;;;;;;4230724;28;20209;-81
2022/08/02 07:25:36;;;;;;;3.78;2.28;;;23.60;99.90;;;;;;4231159;28;20703;-81
2022/08/02 07:27:38;;;;;;;4.85;2.13;;;23.70;99.90;;;;;;4231156;28;20263;-81
2022/08/02 07:29:41;;;;;;;2.58;2.17;;;23.60;99.90;;;;;;4230538;28;20255;-82
2022/08/02 07:31:45;;;;;;;4.00;2.17;;;23.60;99.90;;;;;;4230766;28;20210;-81
2022/08/02 07:33:47;;;;;;;5.72;2.55;;;23.60;99.90;;;;;;4230163;28;20593;-82
2022/08/02 07:35:49;;;;;;;3.78;2.30;;;23.60;99.90;;;;;;4230839;28;20209;-81
2022/08/02 07:37:52;;;;;;;2.58;1.90;;;23.60;99.90;;;;;;4230998;28;20700;-81
2022/08/02 07:39:55;;;;;;;2.13;1.90;;;23.60;99.90;;;;;;4230872;28;20263;-82
2022/08/02 07:41:57;;;;;;;3.58;2.28;;;23.60;99.90;;;;;;4231010;28;20267;-82
2022/08/02 07:43:59;;;;;;;2.42;1.88;;;23.60;99.90;;;;;;4230522;28;20266;-82
2022/08/02 07:46:02;;;;;;;3.95;1.98;;;23.60;99.90;;;;;;4230815;28;20263;-82
2022/08/02 07:48:07;;;;;;;4.13;2.00;;;23.60;99.90;;;;;;4230635;28;20571;-82
2022/08/02 07:50:10;;;;;;;4.70;2.40;;;23.60;99.90;;;;;;4230288;28;20606;-82
2022/08/02 07:52:13;;;;;;;2.08;1.90;;;23.70;99.90;;;;;;4230659;28;20642;-82
2022/08/02 07:54:15;;;;;;;5.70;2.33;;;23.70;99.90;;;;;;4230623;28;20255;-82
2022/08/02 07:56:17;;;;;;;4.53;2.08;;;23.60;99.90;;;;;;4230606;28;20217;-82
2022/08/02 07:58:20;;;;;;;2.20;2.00;;;23.70;99.90;;;;;;4230962;28;20218;-83
2022/08/02 08:00:22;;;;;;;3.03;2.05;;;23.70;99.90;;;;;;4231940;28;20210;-84
2022/08/02 08:02:24;;;;;;;3.00;2.70;;;23.70;99.90;;;;;;4230405;28;20209;-83
2022/08/02 08:04:29;;;;;;;2.97;2.08;;;23.70;99.90;;;;;;4230679;28;20326;-83
2022/08/02 08:06:31;;;;;;;3.38;2.28;;;23.70;99.90;;;;;;4230524;28;20259;-83
2022/08/02 08:08:35;;;;;;;4.60;2.08;;;23.60;99.90;;;;;;4230029;28;20213;-83
2022/08/02 08:10:37;;;;;;;2.42;2.20;;;23.70;99.90;;;;;;4230071;28;20267;-83
2022/08/02 08:12:39;;;;;;;4.65;1.83;;;23.70;99.90;;;;;;4230252;28;20214;-83
2022/08/02 08:14:42;;;;;;;3.08;2.10;;;23.70;99.90;;;;;;4229967;28;20210;-83
2022/08/02 08:16:44;;;;;;;3.83;2.10;;;23.70;99.90;;;;;;4230251;28;20209;-83
2022/08/02 08:18:47;;;;;;;4.15;2.10;;;23.70;99.90;;;;;;4230119;28;20743;-83
2022/08/02 08:20:50;;;;;;;3.85;2.00;;;23.70;99.90;;;;;;4229896;28;20210;-83
2022/08/02 08:22:52;;;;;;;2.97;2.13;;;23.70;99.90;;;;;;4230084;28;20549;-83
2022/08/02 08:24:55;;;;;;;3.05;2.10;;;23.70;99.90;;;;;;4230314;28;20239;-83
2022/08/02 08:26:57;;;;;;;2.33;2.13;;;23.70;99.90;;;;;;4230221;28;20213;-83
2022/08/02 08:29:00;;;;;;;2.55;1.90;;;23.70;99.90;;;;;;4231175;28;20213;-83
2022/08/02 08:31:03;;;;;;;2.40;2.20;;;23.70;99.90;;;;;;4231690;28;20206;-83
2022/08/02 08:33:05;;;;;;;2.78;2.00;;;23.70;99.90;;;;;;4231455;28;20650;-83
2022/08/02 08:35:08;;;;;;;3.28;2.50;;;23.70;99.90;;;;;;4231047;28;20290;-83
2022/08/02 08:37:11;;;;;;;2.72;2.00;;;23.70;99.90;;;;;;4231164;28;20233;-83
2022/08/02 08:39:13;;;;;;;2.60;2.03;;;23.70;99.90;;;;;;4231261;28;20661;-83
2022/08/02 08:41:16;;;;;;;2.83;2.05;;;23.70;99.90;;;;;;4231664;28;20724;-83
2022/08/02 08:43:19;;;;;;;3.00;1.90;;;23.70;99.90;;;;;;4229700;28;20233;-83
2022/08/02 08:45:21;;;;;;;2.35;1.88;;;23.70;99.90;;;;;;4229929;28;20670;-83
2022/08/02 08:47:27;;;;;;;2.58;1.98;;;23.70;99.90;;;;;;4229127;28;20239;-83
2022/08/02 08:49:33;;;;;;;3.75;2.00;;;23.70;99.90;;;;;;4228835;28;20209;-83
2022/08/02 08:51:38;;;;;;;3.42;2.08;;;23.70;99.90;;;;;;4229349;28;20214;-83
2022/08/02 08:53:44;;;;;;;2.45;1.90;;;23.70;99.90;;;;;;4228454;28;20209;-84
2022/08/02 08:55:47;;;;;;;2.50;1.98;;;23.80;99.90;;;;;;4228585;28;20289;-83
2022/08/02 08:57:49;;;;;;;2.85;2.15;;;23.80;99.90;;;;;;4228152;28;20624;-83
2022/08/02 08:59:51;;;;;;;2.15;1.70;;;23.80;99.90;;;;;;4228675;28;20275;-79
2022/08/02 09:01:54;;;;;;;2.03;1.83;;;23.80;99.90;;;;;;4232248;28;20650;-79
2022/08/02 09:03:57;;;;;;;2.47;2.10;;;23.80;99.90;;;;;;4232209;28;20809;-79
2022/08/02 09:05:59;;;;;;;3.45;2.15;;;23.80;99.90;;;;;;4232218;28;20274;-79
2022/08/02 09:08:02;;;;;;;2.90;1.80;;;23.80;99.90;;;;;;4232155;28;20658;-79
2022/08/02 09:10:32;;;;;;;2.20;2.00;;;23.80;99.90;;;;;;4232311;28;20274;-79
2022/08/02 09:12:37;;;;;;;1.67;1.58;;;23.80;99.90;;;;;;4232785;28;20210;-79
2022/08/02 09:14:39;;;;;;;2.13;1.83;;;23.80;99.90;;;;;;4232786;28;20221;-79
2022/08/02 09:16:43;;;;;;;2.05;1.85;;;23.90;99.90;;;;;;4233109;28;20243;-78
2022/08/02 09:18:46;;;;;;;1.90;1.77;;;23.90;99.90;;;;;;4232459;28;20273;-79
2022/08/02 09:20:53;;;;;;;2.50;2.00;;;23.90;99.90;;;;;;4233304;28;20217;-79
2022/08/02 09:23:06;;;;;;;3.55;1.90;;;23.90;99.90;;;;;;4233188;28;20210;-77
2022/08/02 09:25:16;;;;;;;2.97;1.85;;;23.90;99.90;;;;;;4232928;28;20213;-77
2022/08/02 09:27:21;;;;;;;2.33;1.90;;;23.90;99.90;;;;;;4233157;28;20599;-77
2022/08/02 09:29:24;;;;;;;2.10;1.80;;;23.90;99.90;;;;;;4232716;28;20262;-77
2022/08/02 09:31:27;;;;;;;3.05;1.75;;;23.90;99.90;;;;;;4234015;28;20217;-82
2022/08/02 09:33:30;;;;;;;2.60;1.60;;;23.90;99.90;;;;;;4234586;28;20266;-82
2022/08/02 09:35:34;;;;;;;2.05;1.52;;;23.90;99.90;;;;;;4233990;28;20217;-82
2022/08/02 09:37:36;;;;;;;2.35;1.90;;;23.90;99.90;;;;;;4233137;28;20230;-82
2022/08/02 09:39:44;;;;;;;2.00;1.50;;;23.90;99.90;;;;;;4233090;28;20251;-82
2022/08/02 09:41:48;;;;;;;2.92;1.80;;;23.90;99.90;;;;;;4234233;28;20238;-82
2022/08/02 09:43:50;;;;;;;2.55;1.73;;;24.00;99.90;;;;;;4233712;28;20279;-82
2022/08/02 09:45:52;;;;;;;3.38;1.77;;;24.00;99.90;;;;;;4233857;28;20218;-82
2022/08/02 09:47:55;;;;;;;2.28;1.80;;;24.00;99.90;;;;;;4234087;28;20279;-82
2022/08/02 09:49:58;;;;;;;3.33;2.00;;;24.00;99.90;;;;;;4232292;28;20255;-82
2022/08/02 09:52:01;;;;;;;2.15;1.92;;;23.90;99.90;;;;;;4232338;28;20218;-83
2022/08/02 09:54:06;;;;;;;2.92;1.58;;;24.00;99.90;;;;;;4232143;28;20730;-82
2022/08/02 09:56:08;;;;;;;2.15;1.85;;;24.00;99.90;;;;;;4232156;28;20240;-83
2022/08/02 09:58:19;;;;;;;3.13;2.00;;;24.00;99.90;;;;;;4232289;28;20286;-83
2022/08/02 10:00:22;;;;;;;2.10;1.88;;;24.00;99.90;;;;;;4232283;28;20209;-83
2022/08/02 10:02:25;;;;;;;2.67;1.73;;;24.00;99.90;;;;;;4231889;28;20222;-83
2022/08/02 10:04:29;;;;;;;2.03;1.80;;;24.00;99.90;;;;;;4230900;28;20206;-80
2022/08/02 10:06:32;;;;;;;3.58;1.70;;;24.00;99.90;;;;;;4230423;28;20213;-79
2022/08/02 10:08:35;;;;;;;3.17;2.10;;;24.00;99.90;;;;;;4230776;28;20262;-78
2022/08/02 10:10:37;;;;;;;2.38;1.88;;;24.10;99.90;;;;;;4229867;28;20221;-78
2022/08/02 10:12:40;;;;;;;1.60;1.50;;;24.10;99.90;;;;;;4229677;28;20271;-78
2022/08/02 10:14:45;;;;;;;2.28;1.60;;;24.10;99.90;;;;;;4230521;28;20210;-79
2022/08/02 10:16:47;;;;;;;2.30;1.75;;;24.10;99.90;;;;;;4230509;28;20231;-79
2022/08/02 10:18:50;;;;;;;2.53;1.75;;;24.10;99.90;;;;;;4232226;28;20264;-79
2022/08/02 10:20:56;;;;;;;3.13;2.05;;;24.10;99.90;;;;;;4232115;28;20624;-78
2022/08/02 10:23:00;;;;;;;1.88;1.65;;;24.10;99.90;;;;;;4231966;28;20243;-78
2022/08/02 10:25:04;;;;;;;2.08;1.80;;;24.20;99.90;;;;;;4231665;28;20279;-79
2022/08/02 10:27:13;;;;;;;1.50;1.40;;;24.10;99.90;;;;;;4232464;28;20202;-79
2022/08/02 10:29:18;;;;;;;3.10;1.70;;;24.10;99.90;;;;;;4231558;28;20213;-78
2022/08/02 10:31:27;;;;;;;2.00;1.80;;;24.20;99.90;;;;;;4231664;28;20345;-78
2022/08/02 10:33:32;;;;;;;2.15;1.95;;;24.20;99.90;;;;;;4231404;28;20713;-78
2022/08/02 10:35:38;;;;;;;2.65;1.95;;;24.20;99.90;;;;;;4231981;28;20214;-78
2022/08/02 10:37:44;;;;;;;1.73;1.60;;;24.20;99.90;;;;;;4231654;28;20222;-78
2022/08/02 10:39:46;;;;;;;2.83;2.03;;;24.20;99.90;;;;;;4231409;28;20234;-79
2022/08/02 10:41:50;;;;;;;3.35;1.70;;;24.20;99.90;;;;;;4231695;28;20260;-78
2022/08/02 10:43:52;;;;;;;1.80;1.70;;;24.20;99.90;;;;;;4231366;28;20230;-78
2022/08/02 10:46:14;;;;;;;2.65;1.83;;;24.20;99.90;;;;;;4231450;28;20628;-79